createdAt,value
2018-05-29T00:00:10.394Z,20.76
2018-05-29T00:01:16.704Z,20.85
2018-05-29T00:02:23.045Z,20.84
2018-05-29T00:03:29.351Z,20.90
2018-05-29T00:04:35.665Z,20.78
2018-05-29T00:05:41.933Z,20.66
2018-05-29T00:06:48.273Z,20.57
2018-05-29T00:07:54.600Z,20.60
2018-05-29T00:09:02.813Z,20.63
2018-05-29T00:10:08.773Z,20.63
2018-05-29T00:11:15.482Z,20.56
2018-05-29T00:12:22.538Z,20.49
2018-05-29T00:13:29.533Z,20.62
2018-05-29T00:14:36.716Z,20.67
2018-05-29T00:15:43.585Z,20.68
2018-05-29T00:16:53.310Z,20.70
2018-05-29T00:17:59.589Z,20.75
2018-05-29T00:19:05.861Z,20.62
2018-05-29T00:20:12.744Z,20.55
2018-05-29T00:21:19.021Z,20.56
2018-05-29T00:22:25.416Z,20.61
2018-05-29T00:23:31.773Z,20.58
2018-05-29T00:24:38.075Z,20.60
2018-05-29T00:25:44.381Z,20.65
2018-05-29T00:26:51.378Z,20.68
2018-05-29T00:27:58.393Z,20.76
2018-05-29T00:29:04.742Z,20.65
2018-05-29T00:30:11.188Z,20.56
2018-05-29T00:31:17.462Z,20.52
2018-05-29T00:32:23.804Z,20.50
2018-05-29T00:33:30.092Z,20.48
2018-05-29T00:34:36.435Z,20.45
2018-05-29T00:35:42.736Z,20.42
2018-05-29T00:36:49.042Z,20.38
2018-05-29T00:37:55.367Z,20.41
2018-05-29T00:39:03.189Z,20.46
2018-05-29T00:40:09.223Z,20.55
2018-05-29T00:41:15.613Z,20.44
2018-05-29T00:42:22.388Z,20.47
2018-05-29T00:43:30.405Z,20.62
2018-05-29T00:44:36.673Z,20.69
2018-05-29T00:45:43.000Z,20.62
2018-05-29T00:46:49.332Z,20.50
2018-05-29T00:47:55.657Z,20.47
2018-05-29T00:49:02.651Z,20.50
2018-05-29T00:50:09.571Z,20.44
2018-05-29T00:51:22.015Z,20.37
2018-05-29T00:52:30.917Z,20.28
2018-05-29T00:53:39.099Z,20.21
2018-05-29T00:54:44.653Z,20.20
2018-05-29T00:55:50.649Z,20.27
2018-05-29T00:56:56.973Z,20.32
2018-05-29T00:58:03.930Z,20.39
2018-05-29T00:59:10.151Z,20.35
2018-05-29T01:00:16.419Z,20.29
2018-05-29T01:01:21.349Z,20.22
2018-05-29T01:02:27.616Z,20.22
2018-05-29T01:03:33.947Z,20.39
2018-05-29T01:04:40.254Z,20.40
2018-05-29T01:05:46.546Z,20.33
2018-05-29T01:06:52.879Z,20.29
2018-05-29T01:07:59.185Z,20.27
2018-05-29T01:09:04.811Z,20.22
2018-05-29T01:10:11.139Z,20.28
2018-05-29T01:11:17.486Z,20.15
2018-05-29T01:12:24.629Z,20.12
2018-05-29T01:13:31.881Z,20.23
2018-05-29T01:14:38.667Z,20.15
2018-05-29T01:15:44.705Z,20.26
2018-05-29T01:16:51.017Z,20.24
2018-05-29T01:17:57.294Z,20.23
2018-05-29T01:19:03.644Z,20.22
2018-05-29T01:20:09.929Z,20.24
2018-05-29T01:21:16.334Z,20.20
2018-05-29T01:22:22.646Z,20.15
2018-05-29T01:23:29.818Z,20.26
2018-05-29T01:24:36.097Z,20.19
2018-05-29T01:25:42.397Z,20.15
2018-05-29T01:26:48.748Z,19.89
2018-05-29T01:27:55.038Z,19.77
2018-05-29T01:29:02.223Z,19.80
2018-05-29T01:30:08.574Z,19.89
2018-05-29T01:31:14.893Z,19.92
2018-05-29T01:32:21.189Z,19.95
2018-05-29T01:33:33.618Z,19.90
2018-05-29T01:34:39.833Z,20.00
2018-05-29T01:35:46.094Z,19.96
2018-05-29T01:36:52.013Z,19.85
2018-05-29T01:37:58.269Z,19.99
2018-05-29T01:39:03.688Z,20.00
2018-05-29T01:40:09.788Z,19.93
2018-05-29T01:41:18.639Z,19.99
2018-05-29T01:42:24.968Z,20.02
2018-05-29T01:43:31.020Z,20.00
2018-05-29T01:44:37.283Z,20.00
2018-05-29T01:45:43.592Z,19.96
2018-05-29T01:46:49.649Z,19.91
2018-05-29T01:47:56.010Z,19.90
2018-05-29T01:49:02.344Z,19.94
2018-05-29T01:50:09.072Z,19.97
2018-05-29T01:51:15.041Z,19.80
2018-05-29T01:52:21.360Z,19.99
2018-05-29T01:53:27.706Z,19.96
2018-05-29T01:54:43.555Z,20.16
2018-05-29T01:55:49.817Z,20.23
2018-05-29T01:56:56.793Z,20.13
2018-05-29T01:58:03.033Z,20.22
2018-05-29T01:59:09.090Z,20.13
2018-05-29T02:00:15.360Z,20.10
2018-05-29T02:01:23.315Z,20.05
2018-05-29T02:02:29.743Z,20.01
2018-05-29T02:03:36.072Z,20.09
2018-05-29T02:04:42.389Z,19.97
2018-05-29T02:05:48.394Z,19.92
2018-05-29T02:06:55.296Z,19.95
2018-05-29T02:08:02.893Z,19.97
2018-05-29T02:09:08.980Z,20.09
2018-05-29T02:10:15.326Z,19.91
2018-05-29T02:11:21.360Z,19.97
2018-05-29T02:12:27.349Z,19.97
2018-05-29T02:13:33.695Z,19.99
2018-05-29T02:14:40.585Z,19.99
2018-05-29T02:15:55.908Z,20.00
2018-05-29T02:17:05.664Z,19.97
2018-05-29T02:18:11.700Z,19.96
2018-05-29T02:19:18.053Z,20.08
2018-05-29T02:20:24.532Z,20.11
2018-05-29T02:21:30.849Z,20.05
2018-05-29T02:22:37.157Z,20.05
2018-05-29T02:23:43.508Z,19.99
2018-05-29T02:24:50.405Z,20.04
2018-05-29T02:25:56.710Z,19.97
2018-05-29T02:27:03.060Z,19.88
2018-05-29T02:28:09.318Z,19.79
2018-05-29T02:29:15.680Z,19.87
2018-05-29T02:30:22.769Z,19.74
2018-05-29T02:31:29.766Z,19.61
2018-05-29T02:32:36.544Z,19.56
2018-05-29T02:33:43.604Z,19.50
2018-05-29T02:34:49.898Z,19.53
2018-05-29T02:35:57.149Z,19.55
2018-05-29T02:37:03.098Z,19.60
2018-05-29T02:38:09.446Z,19.52
2018-05-29T02:39:15.462Z,19.55
2018-05-29T02:40:21.678Z,19.49
2018-05-29T02:41:27.944Z,19.59
2018-05-29T02:42:34.259Z,19.66
2018-05-29T02:43:41.188Z,19.43
2018-05-29T02:44:47.533Z,19.33
2018-05-29T02:45:58.912Z,19.22
2018-05-29T02:47:05.941Z,19.25
2018-05-29T02:48:12.793Z,19.30
2018-05-29T02:49:19.090Z,19.34
2018-05-29T02:50:25.439Z,19.29
2018-05-29T02:51:31.398Z,19.30
2018-05-29T02:52:37.711Z,19.31
2018-05-29T02:53:43.765Z,19.24
2018-05-29T02:54:50.069Z,19.21
2018-05-29T02:55:56.381Z,19.20
2018-05-29T02:57:02.657Z,19.13
2018-05-29T02:58:08.960Z,19.10
2018-05-29T02:59:15.304Z,19.20
2018-05-29T03:00:23.448Z,19.20
2018-05-29T03:01:29.426Z,19.12
2018-05-29T03:02:35.905Z,19.25
2018-05-29T03:03:42.245Z,19.35
2018-05-29T03:04:48.348Z,19.21
2018-05-29T03:05:54.635Z,19.17
2018-05-29T03:07:00.901Z,19.14
2018-05-29T03:08:07.262Z,19.19
2018-05-29T03:09:13.741Z,19.28
2018-05-29T03:10:19.846Z,19.36
2018-05-29T03:11:26.148Z,19.31
2018-05-29T03:12:32.916Z,19.39
2018-05-29T03:13:38.960Z,19.39
2018-05-29T03:14:45.318Z,19.40
2018-05-29T03:15:51.584Z,19.54
2018-05-29T03:16:58.714Z,19.60
2018-05-29T03:18:05.038Z,19.56
2018-05-29T03:19:11.382Z,19.67
2018-05-29T03:20:18.007Z,19.57
2018-05-29T03:21:24.392Z,19.38
2018-05-29T03:22:31.741Z,19.35
2018-05-29T03:23:38.273Z,19.49
2018-05-29T03:24:44.436Z,19.48
2018-05-29T03:25:50.631Z,19.50
2018-05-29T03:26:56.861Z,19.67
2018-05-29T03:28:03.162Z,19.71
2018-05-29T03:29:09.487Z,19.50
2018-05-29T03:30:15.835Z,19.56
2018-05-29T03:31:21.824Z,19.55
2018-05-29T03:32:28.168Z,19.42
2018-05-29T03:33:34.474Z,19.48
2018-05-29T03:34:40.939Z,19.43
2018-05-29T03:35:47.296Z,19.37
2018-05-29T03:36:53.630Z,19.43
2018-05-29T03:37:59.777Z,19.48
2018-05-29T03:39:05.910Z,19.44
2018-05-29T03:40:12.853Z,19.36
2018-05-29T03:41:19.007Z,19.50
2018-05-29T03:42:25.230Z,19.53
2018-05-29T03:43:31.174Z,19.35
2018-05-29T03:44:37.476Z,19.43
2018-05-29T03:45:43.785Z,19.50
2018-05-29T03:46:50.080Z,19.61
2018-05-29T03:47:56.366Z,19.45
2018-05-29T03:49:02.708Z,19.32
2018-05-29T03:50:09.058Z,19.24
2018-05-29T03:51:15.337Z,19.25
2018-05-29T03:52:21.637Z,19.21
2018-05-29T03:53:27.953Z,19.21
2018-05-29T03:54:35.115Z,19.26
2018-05-29T03:55:42.065Z,19.11
2018-05-29T03:56:48.332Z,19.13
2018-05-29T03:57:55.531Z,19.17
2018-05-29T03:59:02.377Z,19.26
2018-05-29T04:00:11.990Z,19.17
2018-05-29T04:01:19.017Z,19.15
2018-05-29T04:02:25.005Z,19.09
2018-05-29T04:03:31.457Z,19.08
2018-05-29T04:04:37.716Z,19.16
2018-05-29T04:05:44.067Z,19.26
2018-05-29T04:06:50.382Z,19.29
2018-05-29T04:07:56.697Z,19.35
2018-05-29T04:09:02.994Z,19.30
2018-05-29T04:10:09.130Z,19.26
2018-05-29T04:11:16.035Z,19.24
2018-05-29T04:12:22.861Z,19.25
2018-05-29T04:13:29.118Z,19.22
2018-05-29T04:14:36.140Z,19.40
2018-05-29T04:15:42.595Z,19.43
2018-05-29T04:16:49.010Z,19.48
2018-05-29T04:17:55.410Z,19.50
2018-05-29T04:19:01.724Z,19.53
2018-05-29T04:20:07.701Z,19.74
2018-05-29T04:21:14.790Z,19.79
2018-05-29T04:22:21.064Z,19.83
2018-05-29T04:23:27.409Z,19.68
2018-05-29T04:24:33.701Z,19.61
2018-05-29T04:25:40.032Z,19.69
2018-05-29T04:26:46.290Z,19.60
2018-05-29T04:27:52.665Z,19.58
2018-05-29T04:28:58.941Z,19.63
2018-05-29T04:30:04.524Z,19.81
2018-05-29T04:31:10.753Z,19.86
2018-05-29T04:32:17.005Z,19.94
2018-05-29T04:33:23.256Z,20.11
2018-05-29T04:34:29.717Z,20.26
2018-05-29T04:35:36.418Z,20.20
2018-05-29T04:36:42.843Z,20.19
2018-05-29T04:37:49.131Z,20.28
2018-05-29T04:38:55.245Z,20.29
2018-05-29T04:40:01.545Z,20.36
2018-05-29T04:41:07.954Z,20.36
2018-05-29T04:42:14.190Z,20.46
2018-05-29T04:43:20.718Z,20.53
2018-05-29T04:44:26.704Z,20.35
2018-05-29T04:45:33.025Z,20.36
2018-05-29T04:46:39.868Z,20.32
2018-05-29T04:47:45.844Z,20.31
2018-05-29T04:48:52.181Z,20.47
2018-05-29T04:49:59.111Z,20.58
2018-05-29T04:51:05.163Z,20.64
2018-05-29T04:52:12.538Z,20.64
2018-05-29T04:53:20.071Z,20.67
2018-05-29T04:54:26.395Z,20.59
2018-05-29T04:55:33.070Z,20.60
2018-05-29T04:56:39.697Z,20.69
2018-05-29T04:57:46.117Z,20.64
2018-05-29T04:58:52.421Z,20.70
2018-05-29T04:59:58.765Z,20.76
2018-05-29T05:01:04.677Z,20.75
2018-05-29T05:02:12.448Z,20.70
2018-05-29T05:03:19.763Z,20.71
2018-05-29T05:04:26.182Z,20.77
2018-05-29T05:05:32.416Z,20.65
2018-05-29T05:06:38.694Z,20.70
2018-05-29T05:07:44.606Z,20.71
2018-05-29T05:08:50.868Z,20.62
2018-05-29T05:09:57.293Z,20.71
2018-05-29T05:11:03.623Z,20.80
2018-05-29T05:12:09.937Z,20.75
2018-05-29T05:13:16.236Z,20.83
2018-05-29T05:14:22.541Z,20.92
2018-05-29T05:15:28.882Z,20.96
2018-05-29T05:16:35.196Z,20.90
2018-05-29T05:17:41.511Z,21.01
2018-05-29T05:18:48.726Z,20.98
2018-05-29T05:19:55.668Z,20.98
2018-05-29T05:21:02.148Z,21.09
2018-05-29T05:22:08.505Z,21.14
2018-05-29T05:23:14.829Z,21.22
2018-05-29T05:24:21.779Z,21.30
2018-05-29T05:25:27.989Z,21.32
2018-05-29T05:26:34.849Z,21.35
2018-05-29T05:27:41.138Z,21.36
2018-05-29T05:28:47.441Z,21.44
2018-05-29T05:29:53.773Z,21.35
2018-05-29T05:31:00.101Z,21.19
2018-05-29T05:32:08.464Z,21.21
2018-05-29T05:33:14.765Z,21.35
2018-05-29T05:34:22.326Z,21.50
2018-05-29T05:35:28.637Z,21.60
2018-05-29T05:36:34.648Z,21.68
2018-05-29T05:37:40.945Z,21.62
2018-05-29T05:38:47.272Z,21.69
2018-05-29T05:39:53.681Z,21.75
2018-05-29T05:40:59.965Z,21.80
2018-05-29T05:42:05.606Z,21.82
2018-05-29T05:43:11.634Z,21.79
2018-05-29T05:44:18.763Z,21.91
2018-05-29T05:45:25.359Z,21.98
2018-05-29T05:46:31.612Z,21.94
2018-05-29T05:47:37.977Z,22.02
2018-05-29T05:48:44.291Z,22.10
2018-05-29T05:49:50.570Z,22.13
2018-05-29T05:50:56.919Z,22.22
2018-05-29T05:52:03.318Z,22.20
2018-05-29T05:53:09.716Z,22.24
2018-05-29T05:54:16.743Z,22.28
2018-05-29T05:55:23.060Z,22.31
2018-05-29T05:56:29.399Z,22.32
2018-05-29T05:57:36.752Z,22.38
2018-05-29T05:58:42.993Z,22.36
2018-05-29T05:59:49.317Z,22.36
2018-05-29T06:00:55.665Z,22.34
2018-05-29T06:02:01.977Z,22.38
2018-05-29T06:03:08.248Z,22.43
2018-05-29T06:04:14.703Z,22.50
2018-05-29T06:05:21.023Z,22.54
2018-05-29T06:06:27.281Z,22.56
2018-05-29T06:07:33.642Z,22.64
2018-05-29T06:08:39.933Z,22.65
2018-05-29T06:09:46.933Z,22.67
2018-05-29T06:10:53.266Z,22.72
2018-05-29T06:11:59.609Z,22.75
2018-05-29T06:13:05.613Z,22.76
2018-05-29T06:14:12.147Z,22.80
2018-05-29T06:15:18.436Z,22.84
2018-05-29T06:16:24.752Z,22.87
2018-05-29T06:17:31.073Z,22.90
2018-05-29T06:18:37.338Z,22.94
2018-05-29T06:19:43.651Z,22.96
2018-05-29T06:20:49.989Z,22.97
2018-05-29T06:21:56.312Z,22.99
2018-05-29T06:23:02.266Z,23.00
2018-05-29T06:24:08.693Z,23.03
2018-05-29T06:25:15.992Z,23.07
2018-05-29T06:26:22.333Z,23.03
2018-05-29T06:27:28.667Z,23.09
2018-05-29T06:28:34.974Z,23.20
2018-05-29T06:29:41.283Z,23.28
2018-05-29T06:30:51.252Z,23.34
2018-05-29T06:31:57.594Z,23.35
2018-05-29T06:33:05.139Z,23.37
2018-05-29T06:34:11.466Z,23.38
2018-05-29T06:35:17.756Z,23.47
2018-05-29T06:36:24.072Z,23.54
2018-05-29T06:37:30.381Z,23.59
2018-05-29T06:38:36.689Z,23.64
2018-05-29T06:39:43.752Z,23.69
2018-05-29T06:40:49.985Z,23.74
2018-05-29T06:41:58.731Z,23.78
2018-05-29T06:43:04.474Z,23.83
2018-05-29T06:44:10.786Z,23.84
2018-05-29T06:45:17.088Z,23.86
2018-05-29T06:46:23.350Z,23.85
2018-05-29T06:47:29.655Z,23.95
2018-05-29T06:48:41.451Z,24.07
2018-05-29T06:49:51.378Z,24.11
2018-05-29T06:50:57.746Z,24.16
2018-05-29T06:52:03.982Z,24.21
2018-05-29T06:53:10.313Z,24.26
2018-05-29T06:54:16.612Z,24.29
2018-05-29T06:55:23.653Z,24.31
2018-05-29T06:56:30.694Z,24.38
2018-05-29T06:57:37.544Z,24.42
2018-05-29T06:58:43.842Z,24.49
2018-05-29T06:59:50.127Z,24.46
2018-05-29T07:00:56.410Z,24.58
2018-05-29T07:02:02.733Z,24.63
2018-05-29T07:03:09.063Z,24.66
2018-05-29T07:04:15.347Z,24.72
2018-05-29T07:05:21.672Z,24.73
2018-05-29T07:06:28.593Z,24.77
2018-05-29T07:07:34.939Z,24.77
2018-05-29T07:08:40.923Z,24.78
2018-05-29T07:09:50.297Z,24.83
2018-05-29T07:11:03.358Z,24.86
2018-05-29T07:12:10.070Z,24.89
2018-05-29T07:13:16.285Z,24.93
2018-05-29T07:14:22.599Z,24.98
2018-05-29T07:15:29.332Z,24.91
2018-05-29T07:16:35.349Z,25.02
2018-05-29T07:17:41.348Z,25.10
2018-05-29T07:18:47.776Z,25.18
2018-05-29T07:19:54.086Z,25.20
2018-05-29T07:21:00.278Z,25.22
2018-05-29T07:22:06.280Z,25.33
2018-05-29T07:23:12.329Z,25.39
2018-05-29T07:24:18.605Z,25.46
2018-05-29T07:25:24.929Z,25.56
2018-05-29T07:26:30.903Z,25.58
2018-05-29T07:27:37.864Z,25.59
2018-05-29T07:28:44.460Z,25.61
2018-05-29T07:29:51.485Z,25.58
2018-05-29T07:30:57.196Z,25.63
2018-05-29T07:32:03.205Z,25.69
2018-05-29T07:33:09.232Z,25.75
2018-05-29T07:34:15.501Z,25.70
2018-05-29T07:35:22.111Z,25.80
2018-05-29T07:36:27.722Z,25.83
2018-05-29T07:37:33.742Z,25.86
2018-05-29T07:38:39.717Z,25.95
2018-05-29T07:39:45.653Z,25.96
2018-05-29T07:40:52.173Z,26.01
2018-05-29T07:41:58.502Z,26.05
2018-05-29T07:43:04.473Z,26.14
2018-05-29T07:44:10.520Z,26.12
2018-05-29T07:45:16.560Z,26.07
2018-05-29T07:46:22.823Z,26.11
2018-05-29T07:47:28.814Z,26.09
2018-05-29T07:48:34.954Z,26.15
2018-05-29T07:49:40.901Z,26.28
2018-05-29T07:50:47.773Z,26.32
2018-05-29T07:51:53.790Z,26.30
2018-05-29T07:52:59.951Z,26.35
2018-05-29T07:54:05.626Z,26.38
2018-05-29T07:55:11.557Z,26.43
2018-05-29T07:56:17.568Z,26.48
2018-05-29T07:57:23.578Z,26.55
2018-05-29T07:58:30.308Z,26.62
2018-05-29T07:59:37.109Z,26.68
2018-05-29T08:00:43.113Z,26.71
2018-05-29T08:01:49.133Z,26.71
2018-05-29T08:02:55.116Z,26.76
2018-05-29T08:04:02.049Z,26.86
2018-05-29T08:05:08.607Z,26.95
2018-05-29T08:06:15.745Z,27.04
2018-05-29T08:07:21.537Z,27.08
2018-05-29T08:08:27.513Z,27.10
2018-05-29T08:09:33.522Z,27.09
2018-05-29T08:10:39.553Z,27.16
2018-05-29T08:11:45.724Z,27.22
2018-05-29T08:12:52.742Z,27.09
2018-05-29T08:14:00.636Z,27.23
2018-05-29T08:15:07.223Z,27.30
2018-05-29T08:16:13.263Z,27.35
2018-05-29T08:17:19.240Z,27.38
2018-05-29T08:18:25.269Z,27.44
2018-05-29T08:19:31.265Z,27.47
2018-05-29T08:20:37.593Z,27.48
2018-05-29T08:21:43.559Z,27.52
2018-05-29T08:22:49.548Z,27.55
2018-05-29T08:23:55.602Z,27.55
2018-05-29T08:25:01.597Z,27.56
2018-05-29T08:26:07.619Z,27.58
2018-05-29T08:27:13.581Z,27.60
2018-05-29T08:28:19.788Z,27.79
2018-05-29T08:29:25.820Z,27.87
2018-05-29T08:30:31.435Z,27.88
2018-05-29T08:31:37.585Z,27.88
2018-05-29T08:32:43.609Z,27.92
2018-05-29T08:33:56.094Z,27.94
2018-05-29T08:35:02.013Z,27.96
2018-05-29T08:36:07.988Z,27.97
2018-05-29T08:37:13.969Z,27.99
2018-05-29T08:38:21.937Z,27.95
2018-05-29T08:39:29.153Z,27.89
2018-05-29T08:40:35.157Z,27.89
2018-05-29T08:41:41.165Z,27.92
2018-05-29T08:42:47.157Z,27.89
2018-05-29T08:43:53.210Z,27.90
2018-05-29T08:44:58.908Z,27.94
2018-05-29T08:46:04.558Z,27.96
2018-05-29T08:47:11.219Z,28.01
2018-05-29T08:48:17.337Z,28.04
2018-05-29T08:49:23.338Z,28.06
2018-05-29T08:50:29.297Z,28.13
2018-05-29T08:51:35.344Z,28.22
2018-05-29T08:52:41.973Z,28.30
2018-05-29T08:53:47.994Z,28.37
2018-05-29T08:54:53.977Z,28.43
2018-05-29T08:56:01.353Z,28.50
2018-05-29T08:57:08.069Z,28.46
2018-05-29T08:58:14.343Z,28.43
2018-05-29T08:59:20.366Z,28.37
2018-05-29T09:00:26.357Z,28.34
2018-05-29T09:01:32.323Z,28.38
2018-05-29T09:02:38.701Z,28.46
2018-05-29T09:03:44.671Z,28.41
2018-05-29T09:04:50.784Z,28.43
2018-05-29T09:05:56.927Z,28.47
2018-05-29T09:07:07.879Z,28.50
2018-05-29T09:08:13.889Z,28.53
2018-05-29T09:09:20.001Z,28.58
2018-05-29T09:10:26.017Z,28.58
2018-05-29T09:11:32.551Z,28.68
2018-05-29T09:12:39.194Z,28.78
2018-05-29T09:13:44.921Z,28.77
2018-05-29T09:14:50.966Z,28.80
2018-05-29T09:15:57.935Z,28.73
2018-05-29T09:17:03.901Z,28.76
2018-05-29T09:18:09.922Z,28.84
2018-05-29T09:19:15.890Z,28.94
2018-05-29T09:20:22.127Z,29.02
2018-05-29T09:21:28.084Z,29.00
2018-05-29T09:22:34.222Z,28.93
2018-05-29T09:23:40.212Z,28.90
2018-05-29T09:24:46.827Z,28.78
2018-05-29T09:25:52.876Z,28.78
2018-05-29T09:26:58.848Z,28.81
2018-05-29T09:28:04.531Z,28.82
2018-05-29T09:29:10.525Z,28.90
2018-05-29T09:30:16.534Z,29.04
2018-05-29T09:31:22.209Z,29.15
2018-05-29T09:32:28.256Z,29.21
2018-05-29T09:33:34.268Z,29.25
2018-05-29T09:34:40.249Z,29.28
2018-05-29T09:35:46.903Z,29.24
2018-05-29T09:36:57.290Z,29.19
2018-05-29T09:38:08.116Z,29.16
2018-05-29T09:39:14.147Z,29.22
2018-05-29T09:40:20.103Z,29.27
2018-05-29T09:41:26.156Z,29.33
2018-05-29T09:42:32.523Z,29.31
2018-05-29T09:43:38.839Z,29.27
2018-05-29T09:44:44.861Z,29.23
2018-05-29T09:45:51.735Z,29.19
2018-05-29T09:46:58.415Z,29.18
2018-05-29T09:48:04.400Z,29.24
2018-05-29T09:49:10.123Z,29.23
2018-05-29T09:50:16.099Z,29.27
2018-05-29T09:51:21.766Z,29.32
2018-05-29T09:52:27.670Z,29.40
2018-05-29T09:53:33.601Z,29.44
2018-05-29T09:54:39.612Z,29.43
2018-05-29T09:55:46.268Z,29.47
2018-05-29T09:56:52.225Z,29.50
2018-05-29T09:58:00.247Z,29.54
2018-05-29T09:59:08.197Z,29.55
2018-05-29T10:00:13.889Z,29.58
2018-05-29T10:01:19.852Z,29.63
2018-05-29T10:02:25.837Z,29.66
2018-05-29T10:03:32.795Z,29.75
2018-05-29T10:04:39.628Z,29.83
2018-05-29T10:05:45.601Z,29.82
2018-05-29T10:06:51.670Z,29.78
2018-05-29T10:07:57.943Z,29.72
2018-05-29T10:09:03.130Z,29.66
2018-05-29T10:10:09.241Z,29.63
2018-05-29T10:11:15.258Z,29.66
2018-05-29T10:12:21.173Z,29.70
2018-05-29T10:13:26.886Z,29.74
2018-05-29T10:14:32.613Z,29.77
2018-05-29T10:15:39.933Z,29.82
2018-05-29T10:16:45.903Z,29.77
2018-05-29T10:17:51.910Z,29.80
2018-05-29T10:18:57.521Z,29.87
2018-05-29T10:20:03.165Z,29.99
2018-05-29T10:21:08.825Z,30.07
2018-05-29T10:22:15.089Z,30.17
2018-05-29T10:23:21.050Z,30.10
2018-05-29T10:24:27.520Z,30.18
2018-05-29T10:25:33.522Z,30.18
2018-05-29T10:26:39.713Z,30.22
2018-05-29T10:27:45.498Z,30.23
2018-05-29T10:28:51.502Z,30.28
2018-05-29T10:29:57.508Z,30.35
2018-05-29T10:31:03.557Z,30.32
2018-05-29T10:32:09.560Z,30.27
2018-05-29T10:33:15.513Z,30.23
2018-05-29T10:34:21.544Z,30.22
2018-05-29T10:35:27.542Z,30.27
2018-05-29T10:36:33.572Z,30.29
2018-05-29T10:37:39.546Z,30.28
2018-05-29T10:38:45.212Z,30.19
2018-05-29T10:39:52.751Z,30.13
2018-05-29T10:40:59.245Z,30.10
2018-05-29T10:42:05.209Z,30.14
2018-05-29T10:43:11.707Z,30.23
2018-05-29T10:44:17.723Z,30.35
2018-05-29T10:45:23.380Z,30.37
2018-05-29T10:46:29.447Z,30.38
2018-05-29T10:47:35.454Z,30.32
2018-05-29T10:48:41.443Z,30.34
2018-05-29T10:49:47.436Z,30.41
2018-05-29T10:50:54.168Z,30.50
2018-05-29T10:52:00.168Z,30.54
2018-05-29T10:53:06.165Z,30.62
2018-05-29T10:54:11.954Z,30.68
2018-05-29T10:55:17.966Z,30.73
2018-05-29T10:56:24.009Z,30.70
2018-05-29T10:57:33.682Z,30.76
2018-05-29T10:58:39.649Z,30.78
2018-05-29T10:59:45.362Z,30.75
2018-05-29T11:00:51.515Z,30.69
2018-05-29T11:01:57.475Z,30.65
2018-05-29T11:03:03.489Z,30.60
2018-05-29T11:04:09.490Z,30.66
2018-05-29T11:05:15.521Z,30.66
2018-05-29T11:06:21.542Z,30.69
2018-05-29T11:07:27.884Z,30.73
2018-05-29T11:08:33.587Z,30.78
2018-05-29T11:09:39.541Z,30.84
2018-05-29T11:10:45.221Z,30.90
2018-05-29T11:11:50.947Z,30.98
2018-05-29T11:12:56.942Z,31.06
2018-05-29T11:14:02.933Z,31.10
2018-05-29T11:15:08.265Z,31.16
2018-05-29T11:16:15.221Z,31.18
2018-05-29T11:17:21.804Z,31.22
2018-05-29T11:18:27.794Z,31.29
2018-05-29T11:19:33.771Z,31.30
2018-05-29T11:20:39.768Z,31.28
2018-05-29T11:21:45.910Z,31.26
2018-05-29T11:22:55.614Z,31.26
2018-05-29T11:24:01.619Z,31.24
2018-05-29T11:25:07.586Z,31.19
2018-05-29T11:26:13.575Z,31.23
2018-05-29T11:27:19.311Z,31.29
2018-05-29T11:28:25.281Z,31.30
2018-05-29T11:29:31.313Z,31.20
2018-05-29T11:30:38.093Z,31.18
2018-05-29T11:31:44.141Z,31.19
2018-05-29T11:32:51.129Z,31.09
2018-05-29T11:33:57.665Z,30.97
2018-05-29T11:35:03.686Z,30.99
2018-05-29T11:36:12.041Z,31.06
2018-05-29T11:37:18.165Z,31.18
2018-05-29T11:38:24.281Z,31.20
2018-05-29T11:39:30.248Z,31.21
2018-05-29T11:40:35.954Z,31.28
2018-05-29T11:41:41.923Z,31.36
2018-05-29T11:42:55.535Z,31.41
2018-05-29T11:44:02.333Z,31.35
2018-05-29T11:45:08.050Z,31.39
2018-05-29T11:46:13.825Z,31.39
2018-05-29T11:47:19.692Z,31.38
2018-05-29T11:48:26.602Z,31.45
2018-05-29T11:49:32.611Z,31.45
2018-05-29T11:50:38.782Z,31.46
2018-05-29T11:51:44.791Z,31.51
2018-05-29T11:52:50.925Z,31.53
2018-05-29T11:53:56.914Z,31.54
2018-05-29T11:55:02.593Z,31.51
2018-05-29T11:56:08.313Z,31.51
2018-05-29T11:57:14.863Z,31.54
2018-05-29T11:58:20.881Z,31.57
2018-05-29T11:59:26.867Z,31.57
2018-05-29T12:00:32.912Z,31.62
2018-05-29T12:01:39.132Z,31.67
2018-05-29T12:02:45.166Z,31.71
2018-05-29T12:03:59.665Z,31.72
2018-05-29T12:05:05.558Z,31.76
2018-05-29T12:06:11.562Z,31.72
2018-05-29T12:07:17.604Z,31.53
2018-05-29T12:08:23.297Z,31.43
2018-05-29T12:09:28.957Z,31.28
2018-05-29T12:10:34.693Z,31.27
2018-05-29T12:11:40.665Z,31.30
2018-05-29T12:12:46.699Z,31.35
2018-05-29T12:13:52.777Z,31.36
2018-05-29T12:14:58.475Z,31.41
2018-05-29T12:16:04.133Z,31.39
2018-05-29T12:17:10.061Z,31.46
2018-05-29T12:18:16.125Z,31.57
2018-05-29T12:19:22.122Z,31.65
2018-05-29T12:20:28.107Z,31.68
2018-05-29T12:21:33.794Z,31.78
2018-05-29T12:22:39.820Z,31.88
2018-05-29T12:23:46.448Z,31.93
2018-05-29T12:24:52.974Z,31.91
2018-05-29T12:26:00.789Z,31.89
2018-05-29T12:27:06.770Z,31.86
2018-05-29T12:28:12.510Z,31.93
2018-05-29T12:29:19.014Z,32.01
2018-05-29T12:30:25.016Z,32.05
2018-05-29T12:31:30.716Z,32.04
2018-05-29T12:32:36.433Z,32.02
2018-05-29T12:33:42.430Z,31.90
2018-05-29T12:34:48.389Z,31.82
2018-05-29T12:35:54.049Z,31.85
2018-05-29T12:37:00.046Z,31.88
2018-05-29T12:38:06.037Z,31.87
2018-05-29T12:39:12.037Z,31.94
2018-05-29T12:40:18.081Z,31.91
2018-05-29T12:41:24.009Z,31.96
2018-05-29T12:42:29.929Z,32.03
2018-05-29T12:43:35.959Z,32.14
2018-05-29T12:44:41.953Z,32.19
2018-05-29T12:45:48.404Z,32.13
2018-05-29T12:46:54.782Z,32.11
2018-05-29T12:48:00.793Z,32.08
2018-05-29T12:49:06.817Z,32.14
2018-05-29T12:50:12.777Z,32.20
2018-05-29T12:51:18.802Z,32.28
2018-05-29T12:52:24.813Z,32.34
2018-05-29T12:53:31.585Z,32.29
2018-05-29T12:54:37.318Z,32.15
2018-05-29T12:55:43.319Z,32.11
2018-05-29T12:56:49.322Z,32.13
2018-05-29T12:57:55.325Z,32.21
2018-05-29T12:59:01.129Z,32.33
2018-05-29T13:00:06.727Z,32.34
2018-05-29T13:01:12.896Z,32.34
2018-05-29T13:02:18.880Z,32.34
2018-05-29T13:03:24.869Z,32.31
2018-05-29T13:04:30.554Z,32.20
2018-05-29T13:05:36.244Z,32.16
2018-05-29T13:06:42.278Z,32.18
2018-05-29T13:07:48.001Z,32.22
2018-05-29T13:08:54.585Z,32.25
2018-05-29T13:10:00.279Z,32.29
2018-05-29T13:11:05.994Z,32.38
2018-05-29T13:12:11.969Z,32.44
2018-05-29T13:13:17.796Z,32.47
2018-05-29T13:14:23.481Z,32.42
2018-05-29T13:15:29.447Z,32.32
2018-05-29T13:16:35.727Z,32.16
2018-05-29T13:17:41.564Z,32.01
2018-05-29T13:18:47.632Z,31.96
2018-05-29T13:19:53.653Z,31.94
2018-05-29T13:21:00.077Z,32.01
2018-05-29T13:22:06.578Z,32.05
2018-05-29T13:23:12.368Z,32.14
2018-05-29T13:24:18.679Z,32.23
2018-05-29T13:25:24.654Z,32.33
2018-05-29T13:26:30.639Z,32.43
2018-05-29T13:27:36.456Z,32.51
2018-05-29T13:28:44.134Z,32.57
2018-05-29T13:29:56.048Z,32.56
2018-05-29T13:31:02.038Z,32.53
2018-05-29T13:32:07.872Z,32.49
2018-05-29T13:33:13.545Z,32.48
2018-05-29T13:34:19.382Z,32.52
2018-05-29T13:35:25.120Z,32.45
2018-05-29T13:36:31.557Z,32.35
2018-05-29T13:37:37.624Z,32.34
2018-05-29T13:38:43.529Z,32.37
2018-05-29T13:39:49.475Z,32.31
2018-05-29T13:40:55.302Z,32.34
2018-05-29T13:42:00.967Z,32.40
2018-05-29T13:43:06.828Z,32.42
2018-05-29T13:44:12.573Z,32.48
2018-05-29T13:45:18.261Z,32.52
2018-05-29T13:46:23.952Z,32.59
2018-05-29T13:47:29.966Z,32.53
2018-05-29T13:48:35.696Z,32.50
2018-05-29T13:49:41.490Z,32.44
2018-05-29T13:50:47.257Z,32.45
2018-05-29T13:51:53.043Z,32.51
2018-05-29T13:52:59.103Z,32.60
2018-05-29T13:54:05.142Z,32.60
2018-05-29T13:55:11.092Z,32.52
2018-05-29T13:56:17.077Z,32.38
2018-05-29T13:57:23.534Z,32.36
2018-05-29T13:58:29.190Z,32.25
2018-05-29T13:59:34.914Z,32.15
2018-05-29T14:00:40.598Z,32.07
2018-05-29T14:01:46.597Z,32.12
2018-05-29T14:02:52.627Z,32.18
2018-05-29T14:03:58.898Z,32.24
2018-05-29T14:05:03.921Z,32.34
2018-05-29T14:06:09.560Z,32.42
2018-05-29T14:07:15.433Z,32.44
2018-05-29T14:08:21.410Z,32.41
2018-05-29T14:09:27.433Z,32.44
2018-05-29T14:10:33.068Z,32.50
2018-05-29T14:11:38.915Z,32.56
2018-05-29T14:12:44.894Z,32.57
2018-05-29T14:13:50.639Z,32.53
2018-05-29T14:14:57.066Z,32.49